sensor_id;sensor_type;location;lat;lon;timestamp;P1;durP1;ratioP1;P2;durP2;ratioP2
65656;SDS011;57397;50.096;14.404;2022-07-09T00:01:28;2.22;;;1.50;;
65656;SDS011;57397;50.096;14.404;2022-07-09T00:03:54;1.88;;;1.40;;
65656;SDS011;57397;50.096;14.404;2022-07-09T00:06:20;2.35;;;1.50;;
65656;SDS011;57397;50.096;14.404;2022-07-09T00:08:45;2.15;;;1.60;;
65656;SDS011;57397;50.096;14.404;2022-07-09T00:11:11;1.92;;;1.30;;
65656;SDS011;57397;50.096;14.404;2022-07-09T00:13:36;3.00;;;1.50;;
65656;SDS011;57397;50.096;14.404;2022-07-09T00:16:02;3.10;;;1.60;;
65656;SDS011;57397;50.096;14.404;2022-07-09T00:18:27;1.90;;;1.30;;
65656;SDS011;57397;50.096;14.404;2022-07-09T00:20:56;1.80;;;1.45;;
65656;SDS011;57397;50.096;14.404;2022-07-09T00:23:21;1.88;;;1.40;;
65656;SDS011;57397;50.096;14.404;2022-07-09T00:25:47;2.03;;;1.40;;
65656;SDS011;57397;50.096;14.404;2022-07-09T00:28:12;2.75;;;1.48;;
65656;SDS011;57397;50.096;14.404;2022-07-09T00:30:38;1.95;;;1.45;;
65656;SDS011;57397;50.096;14.404;2022-07-09T00:33:03;3.97;;;1.65;;
65656;SDS011;57397;50.096;14.404;2022-07-09T00:35:28;2.05;;;1.45;;
65656;SDS011;57397;50.096;14.404;2022-07-09T00:37:54;2.72;;;1.40;;
65656;SDS011;57397;50.096;14.404;2022-07-09T00:40:20;1.35;;;1.20;;
65656;SDS011;57397;50.096;14.404;2022-07-09T00:42:45;1.60;;;1.40;;
65656;SDS011;57397;50.096;14.404;2022-07-09T00:45:11;2.20;;;1.50;;
65656;SDS011;57397;50.096;14.404;2022-07-09T00:47:37;2.38;;;1.50;;
65656;SDS011;57397;50.096;14.404;2022-07-09T00:50:02;1.50;;;1.27;;
65656;SDS011;57397;50.096;14.404;2022-07-09T00:52:29;2.00;;;1.20;;
65656;SDS011;57397;50.096;14.404;2022-07-09T00:54:55;1.52;;;1.23;;
65656;SDS011;57397;50.096;14.404;2022-07-09T00:57:21;2.67;;;1.58;;
65656;SDS011;57397;50.096;14.404;2022-07-09T00:59:47;2.08;;;1.52;;
65656;SDS011;57397;50.096;14.404;2022-07-09T01:02:13;1.77;;;1.48;;
65656;SDS011;57397;50.096;14.404;2022-07-09T01:04:38;2.38;;;1.38;;
65656;SDS011;57397;50.096;14.404;2022-07-09T01:07:05;1.65;;;1.30;;
65656;SDS011;57397;50.096;14.404;2022-07-09T01:09:30;2.35;;;1.45;;
65656;SDS011;57397;50.096;14.404;2022-07-09T01:11:56;1.67;;;1.40;;
65656;SDS011;57397;50.096;14.404;2022-07-09T01:14:22;2.65;;;1.50;;
65656;SDS011;57397;50.096;14.404;2022-07-09T01:16:56;2.05;;;1.40;;
65656;SDS011;57397;50.096;14.404;2022-07-09T01:19:26;1.67;;;1.48;;
65656;SDS011;57397;50.096;14.404;2022-07-09T01:21:52;2.47;;;1.42;;
65656;SDS011;57397;50.096;14.404;2022-07-09T01:24:18;1.50;;;1.30;;
65656;SDS011;57397;50.096;14.404;2022-07-09T01:26:43;1.92;;;1.35;;
65656;SDS011;57397;50.096;14.404;2022-07-09T01:29:09;2.75;;;1.45;;
65656;SDS011;57397;50.096;14.404;2022-07-09T01:31:35;2.13;;;1.35;;
65656;SDS011;57397;50.096;14.404;2022-07-09T01:34:01;2.75;;;1.33;;
65656;SDS011;57397;50.096;14.404;2022-07-09T01:36:27;2.00;;;1.40;;
65656;SDS011;57397;50.096;14.404;2022-07-09T01:38:52;2.08;;;1.40;;
65656;SDS011;57397;50.096;14.404;2022-07-09T01:41:18;3.08;;;1.52;;
65656;SDS011;57397;50.096;14.404;2022-07-09T01:43:43;2.47;;;1.40;;
65656;SDS011;57397;50.096;14.404;2022-07-09T01:46:09;1.80;;;1.50;;
65656;SDS011;57397;50.096;14.404;2022-07-09T01:48:34;3.78;;;1.65;;
65656;SDS011;57397;50.096;14.404;2022-07-09T01:51:04;1.88;;;1.30;;
65656;SDS011;57397;50.096;14.404;2022-07-09T01:53:29;1.83;;;1.30;;
65656;SDS011;57397;50.096;14.404;2022-07-09T01:55:55;3.00;;;1.30;;
65656;SDS011;57397;50.096;14.404;2022-07-09T01:58:23;2.83;;;1.55;;
65656;SDS011;57397;50.096;14.404;2022-07-09T02:00:49;1.88;;;1.50;;
65656;SDS011;57397;50.096;14.404;2022-07-09T02:03:14;3.53;;;1.45;;
65656;SDS011;57397;50.096;14.404;2022-07-09T02:05:39;1.92;;;1.65;;
65656;SDS011;57397;50.096;14.404;2022-07-09T02:08:05;1.90;;;1.40;;
65656;SDS011;57397;50.096;14.404;2022-07-09T02:10:30;1.95;;;1.30;;
65656;SDS011;57397;50.096;14.404;2022-07-09T02:12:56;1.90;;;1.27;;
65656;SDS011;57397;50.096;14.404;2022-07-09T02:15:21;1.73;;;1.30;;
65656;SDS011;57397;50.096;14.404;2022-07-09T02:17:47;1.70;;;1.40;;
65656;SDS011;57397;50.096;14.404;2022-07-09T02:20:12;2.25;;;1.30;;
65656;SDS011;57397;50.096;14.404;2022-07-09T02:22:38;3.15;;;1.55;;
65656;SDS011;57397;50.096;14.404;2022-07-09T02:25:04;2.85;;;1.50;;
65656;SDS011;57397;50.096;14.404;2022-07-09T02:27:30;2.08;;;1.70;;
65656;SDS011;57397;50.096;14.404;2022-07-09T02:29:55;3.08;;;1.40;;
65656;SDS011;57397;50.096;14.404;2022-07-09T02:32:20;1.65;;;1.50;;
65656;SDS011;57397;50.096;14.404;2022-07-09T02:34:46;1.60;;;1.40;;
65656;SDS011;57397;50.096;14.404;2022-07-09T02:37:12;2.05;;;1.40;;
65656;SDS011;57397;50.096;14.404;2022-07-09T02:39:38;2.65;;;1.45;;
65656;SDS011;57397;50.096;14.404;2022-07-09T02:42:03;2.65;;;1.40;;
65656;SDS011;57397;50.096;14.404;2022-07-09T02:44:29;2.25;;;1.50;;
65656;SDS011;57397;50.096;14.404;2022-07-09T02:46:54;1.60;;;1.30;;
65656;SDS011;57397;50.096;14.404;2022-07-09T02:49:20;2.33;;;1.50;;
65656;SDS011;57397;50.096;14.404;2022-07-09T02:51:46;3.47;;;1.50;;
65656;SDS011;57397;50.096;14.404;2022-07-09T02:54:12;2.20;;;1.40;;
65656;SDS011;57397;50.096;14.404;2022-07-09T02:56:37;1.92;;;1.30;;
65656;SDS011;57397;50.096;14.404;2022-07-09T02:59:03;2.42;;;1.42;;
65656;SDS011;57397;50.096;14.404;2022-07-09T03:01:28;2.00;;;1.60;;
65656;SDS011;57397;50.096;14.404;2022-07-09T03:03:54;2.17;;;1.40;;
65656;SDS011;57397;50.096;14.404;2022-07-09T03:06:19;2.80;;;1.30;;
65656;SDS011;57397;50.096;14.404;2022-07-09T03:08:45;1.30;;;1.20;;
65656;SDS011;57397;50.096;14.404;2022-07-09T03:11:11;1.63;;;1.38;;
65656;SDS011;57397;50.096;14.404;2022-07-09T03:13:36;1.83;;;1.42;;
65656;SDS011;57397;50.096;14.404;2022-07-09T03:16:02;1.80;;;1.30;;
65656;SDS011;57397;50.096;14.404;2022-07-09T03:18:28;3.10;;;1.42;;
65656;SDS011;57397;50.096;14.404;2022-07-09T03:20:53;2.42;;;1.60;;
65656;SDS011;57397;50.096;14.404;2022-07-09T03:23:19;2.00;;;1.30;;
65656;SDS011;57397;50.096;14.404;2022-07-09T03:25:44;3.03;;;1.40;;
65656;SDS011;57397;50.096;14.404;2022-07-09T03:28:10;1.45;;;1.10;;
65656;SDS011;57397;50.096;14.404;2022-07-09T03:30:35;1.45;;;1.35;;
65656;SDS011;57397;50.096;14.404;2022-07-09T03:33:01;2.22;;;1.33;;
65656;SDS011;57397;50.096;14.404;2022-07-09T03:35:26;2.13;;;1.20;;
65656;SDS011;57397;50.096;14.404;2022-07-09T03:37:52;2.50;;;1.30;;
65656;SDS011;57397;50.096;14.404;2022-07-09T03:40:18;1.60;;;1.30;;
65656;SDS011;57397;50.096;14.404;2022-07-09T03:42:43;1.45;;;1.25;;
65656;SDS011;57397;50.096;14.404;2022-07-09T03:45:09;1.98;;;1.50;;
65656;SDS011;57397;50.096;14.404;2022-07-09T03:47:35;1.75;;;1.25;;
65656;SDS011;57397;50.096;14.404;2022-07-09T03:50:01;1.83;;;1.38;;
65656;SDS011;57397;50.096;14.404;2022-07-09T03:52:26;2.45;;;1.40;;
65656;SDS011;57397;50.096;14.404;2022-07-09T03:54:51;1.95;;;1.33;;
65656;SDS011;57397;50.096;14.404;2022-07-09T03:57:17;2.17;;;1.33;;
65656;SDS011;57397;50.096;14.404;2022-07-09T03:59:42;1.50;;;1.40;;
65656;SDS011;57397;50.096;14.404;2022-07-09T04:02:08;2.30;;;1.33;;
65656;SDS011;57397;50.096;14.404;2022-07-09T04:04:34;1.50;;;1.40;;
65656;SDS011;57397;50.096;14.404;2022-07-09T04:06:59;2.58;;;1.30;;
65656;SDS011;57397;50.096;14.404;2022-07-09T04:09:25;2.50;;;1.35;;
65656;SDS011;57397;50.096;14.404;2022-07-09T04:11:50;2.00;;;1.35;;
65656;SDS011;57397;50.096;14.404;2022-07-09T04:14:15;1.85;;;1.40;;
65656;SDS011;57397;50.096;14.404;2022-07-09T04:16:41;3.50;;;1.50;;
65656;SDS011;57397;50.096;14.404;2022-07-09T04:19:07;2.45;;;1.40;;
65656;SDS011;57397;50.096;14.404;2022-07-09T04:21:32;2.65;;;1.30;;
65656;SDS011;57397;50.096;14.404;2022-07-09T04:23:58;1.85;;;1.38;;
65656;SDS011;57397;50.096;14.404;2022-07-09T04:26:23;1.48;;;1.25;;
65656;SDS011;57397;50.096;14.404;2022-07-09T04:28:49;1.85;;;1.65;;
65656;SDS011;57397;50.096;14.404;2022-07-09T04:31:15;1.75;;;1.50;;
65656;SDS011;57397;50.096;14.404;2022-07-09T04:33:41;3.13;;;1.48;;
65656;SDS011;57397;50.096;14.404;2022-07-09T04:36:08;1.95;;;1.20;;
65656;SDS011;57397;50.096;14.404;2022-07-09T04:38:34;1.63;;;1.30;;
65656;SDS011;57397;50.096;14.404;2022-07-09T04:40:59;3.88;;;1.33;;
65656;SDS011;57397;50.096;14.404;2022-07-09T04:43:25;1.65;;;1.33;;
65656;SDS011;57397;50.096;14.404;2022-07-09T04:45:50;1.88;;;1.50;;
65656;SDS011;57397;50.096;14.404;2022-07-09T04:48:16;2.22;;;1.40;;
65656;SDS011;57397;50.096;14.404;2022-07-09T04:50:41;1.40;;;1.15;;
65656;SDS011;57397;50.096;14.404;2022-07-09T04:53:06;1.42;;;1.23;;
65656;SDS011;57397;50.096;14.404;2022-07-09T04:55:32;1.60;;;1.10;;
65656;SDS011;57397;50.096;14.404;2022-07-09T04:57:58;2.67;;;1.40;;
65656;SDS011;57397;50.096;14.404;2022-07-09T05:00:23;1.70;;;1.30;;
65656;SDS011;57397;50.096;14.404;2022-07-09T05:02:49;1.58;;;1.40;;
65656;SDS011;57397;50.096;14.404;2022-07-09T05:05:14;1.70;;;1.45;;
65656;SDS011;57397;50.096;14.404;2022-07-09T05:07:40;2.72;;;1.60;;
65656;SDS011;57397;50.096;14.404;2022-07-09T05:10:07;2.63;;;1.40;;
65656;SDS011;57397;50.096;14.404;2022-07-09T05:12:33;2.35;;;1.30;;
65656;SDS011;57397;50.096;14.404;2022-07-09T05:14:58;1.50;;;1.33;;
65656;SDS011;57397;50.096;14.404;2022-07-09T05:17:24;2.28;;;1.30;;
65656;SDS011;57397;50.096;14.404;2022-07-09T05:19:50;1.88;;;1.30;;
65656;SDS011;57397;50.096;14.404;2022-07-09T05:22:15;1.90;;;1.30;;
65656;SDS011;57397;50.096;14.404;2022-07-09T05:24:41;1.85;;;1.35;;
65656;SDS011;57397;50.096;14.404;2022-07-09T05:27:07;1.75;;;1.10;;
65656;SDS011;57397;50.096;14.404;2022-07-09T05:29:34;2.20;;;1.42;;
65656;SDS011;57397;50.096;14.404;2022-07-09T05:32:00;1.63;;;1.30;;
65656;SDS011;57397;50.096;14.404;2022-07-09T05:34:26;1.30;;;1.20;;
65656;SDS011;57397;50.096;14.404;2022-07-09T05:36:51;1.58;;;1.30;;
65656;SDS011;57397;50.096;14.404;2022-07-09T05:39:17;2.20;;;1.23;;
65656;SDS011;57397;50.096;14.404;2022-07-09T05:41:46;5.40;;;1.55;;
65656;SDS011;57397;50.096;14.404;2022-07-09T05:44:11;2.03;;;1.30;;
65656;SDS011;57397;50.096;14.404;2022-07-09T05:46:37;3.33;;;1.45;;
65656;SDS011;57397;50.096;14.404;2022-07-09T05:49:02;1.40;;;1.30;;
65656;SDS011;57397;50.096;14.404;2022-07-09T05:51:28;1.30;;;1.20;;
65656;SDS011;57397;50.096;14.404;2022-07-09T05:53:54;1.50;;;1.30;;
65656;SDS011;57397;50.096;14.404;2022-07-09T05:56:19;2.63;;;1.30;;
65656;SDS011;57397;50.096;14.404;2022-07-09T05:58:45;1.50;;;1.40;;
65656;SDS011;57397;50.096;14.404;2022-07-09T06:01:11;1.60;;;1.40;;
65656;SDS011;57397;50.096;14.404;2022-07-09T06:03:38;1.80;;;1.30;;
65656;SDS011;57397;50.096;14.404;2022-07-09T06:06:05;1.50;;;1.23;;
65656;SDS011;57397;50.096;14.404;2022-07-09T06:08:30;1.73;;;1.30;;
65656;SDS011;57397;50.096;14.404;2022-07-09T06:10:57;1.50;;;1.20;;
65656;SDS011;57397;50.096;14.404;2022-07-09T06:13:22;2.10;;;1.48;;
65656;SDS011;57397;50.096;14.404;2022-07-09T06:15:48;1.63;;;1.30;;
65656;SDS011;57397;50.096;14.404;2022-07-09T06:18:13;1.90;;;1.42;;
65656;SDS011;57397;50.096;14.404;2022-07-09T06:20:39;1.85;;;1.30;;
65656;SDS011;57397;50.096;14.404;2022-07-09T06:23:05;2.22;;;1.38;;
65656;SDS011;57397;50.096;14.404;2022-07-09T06:25:30;2.05;;;1.40;;
65656;SDS011;57397;50.096;14.404;2022-07-09T06:27:55;1.50;;;1.40;;
65656;SDS011;57397;50.096;14.404;2022-07-09T06:30:21;1.77;;;1.30;;
65656;SDS011;57397;50.096;14.404;2022-07-09T06:32:46;1.98;;;1.20;;
65656;SDS011;57397;50.096;14.404;2022-07-09T06:35:12;3.05;;;1.48;;
65656;SDS011;57397;50.096;14.404;2022-07-09T06:37:38;1.65;;;1.30;;
65656;SDS011;57397;50.096;14.404;2022-07-09T06:40:04;1.40;;;1.20;;
65656;SDS011;57397;50.096;14.404;2022-07-09T06:42:30;1.45;;;1.30;;
65656;SDS011;57397;50.096;14.404;2022-07-09T06:44:55;2.20;;;1.23;;
65656;SDS011;57397;50.096;14.404;2022-07-09T06:47:20;2.17;;;1.40;;
65656;SDS011;57397;50.096;14.404;2022-07-09T06:49:46;1.65;;;1.30;;
65656;SDS011;57397;50.096;14.404;2022-07-09T06:52:12;1.42;;;1.27;;
65656;SDS011;57397;50.096;14.404;2022-07-09T06:54:38;1.75;;;1.25;;
65656;SDS011;57397;50.096;14.404;2022-07-09T06:57:03;1.48;;;1.33;;
65656;SDS011;57397;50.096;14.404;2022-07-09T06:59:29;2.20;;;1.30;;
65656;SDS011;57397;50.096;14.404;2022-07-09T07:01:55;1.83;;;1.27;;
65656;SDS011;57397;50.096;14.404;2022-07-09T07:04:20;1.48;;;1.30;;
65656;SDS011;57397;50.096;14.404;2022-07-09T07:06:47;1.35;;;1.20;;
65656;SDS011;57397;50.096;14.404;2022-07-09T07:09:14;1.40;;;1.20;;
65656;SDS011;57397;50.096;14.404;2022-07-09T07:11:44;1.50;;;1.17;;
65656;SDS011;57397;50.096;14.404;2022-07-09T07:14:10;1.35;;;1.23;;
65656;SDS011;57397;50.096;14.404;2022-07-09T07:16:36;1.60;;;1.30;;
65656;SDS011;57397;50.096;14.404;2022-07-09T07:19:02;1.70;;;1.17;;
65656;SDS011;57397;50.096;14.404;2022-07-09T07:21:27;1.30;;;1.20;;
65656;SDS011;57397;50.096;14.404;2022-07-09T07:23:53;1.30;;;1.20;;
65656;SDS011;57397;50.096;14.404;2022-07-09T07:26:18;1.30;;;1.13;;
65656;SDS011;57397;50.096;14.404;2022-07-09T07:28:44;1.67;;;1.17;;
65656;SDS011;57397;50.096;14.404;2022-07-09T07:31:09;1.73;;;1.20;;
65656;SDS011;57397;50.096;14.404;2022-07-09T07:33:35;1.30;;;1.10;;
65656;SDS011;57397;50.096;14.404;2022-07-09T07:36:01;1.30;;;1.10;;
65656;SDS011;57397;50.096;14.404;2022-07-09T07:38:27;1.90;;;1.27;;
65656;SDS011;57397;50.096;14.404;2022-07-09T07:40:53;1.60;;;1.20;;
65656;SDS011;57397;50.096;14.404;2022-07-09T07:43:20;1.60;;;1.27;;
65656;SDS011;57397;50.096;14.404;2022-07-09T07:45:45;1.55;;;1.27;;
65656;SDS011;57397;50.096;14.404;2022-07-09T07:48:11;1.20;;;1.10;;
65656;SDS011;57397;50.096;14.404;2022-07-09T07:50:36;1.75;;;1.20;;
65656;SDS011;57397;50.096;14.404;2022-07-09T07:53:06;2.28;;;1.23;;
65656;SDS011;57397;50.096;14.404;2022-07-09T07:55:32;1.60;;;1.10;;
65656;SDS011;57397;50.096;14.404;2022-07-09T07:57:58;1.33;;;1.17;;
65656;SDS011;57397;50.096;14.404;2022-07-09T08:00:24;1.30;;;1.17;;
65656;SDS011;57397;50.096;14.404;2022-07-09T08:02:50;1.40;;;1.10;;
65656;SDS011;57397;50.096;14.404;2022-07-09T08:05:15;1.85;;;1.23;;
65656;SDS011;57397;50.096;14.404;2022-07-09T08:07:41;1.10;;;1.00;;
65656;SDS011;57397;50.096;14.404;2022-07-09T08:10:07;1.70;;;1.10;;
65656;SDS011;57397;50.096;14.404;2022-07-09T08:12:33;2.25;;;1.20;;
65656;SDS011;57397;50.096;14.404;2022-07-09T08:14:59;2.17;;;1.10;;
65656;SDS011;57397;50.096;14.404;2022-07-09T08:17:25;1.45;;;1.20;;
65656;SDS011;57397;50.096;14.404;2022-07-09T08:19:50;1.67;;;1.20;;
65656;SDS011;57397;50.096;14.404;2022-07-09T08:22:16;1.75;;;1.23;;
65656;SDS011;57397;50.096;14.404;2022-07-09T08:24:41;1.80;;;1.27;;
65656;SDS011;57397;50.096;14.404;2022-07-09T08:27:07;1.00;;;0.90;;
65656;SDS011;57397;50.096;14.404;2022-07-09T08:29:33;1.30;;;1.20;;
65656;SDS011;57397;50.096;14.404;2022-07-09T08:31:58;1.98;;;1.20;;
65656;SDS011;57397;50.096;14.404;2022-07-09T08:34:24;1.73;;;1.30;;
65656;SDS011;57397;50.096;14.404;2022-07-09T08:36:49;1.10;;;1.00;;
65656;SDS011;57397;50.096;14.404;2022-07-09T08:39:15;1.42;;;1.20;;
65656;SDS011;57397;50.096;14.404;2022-07-09T08:41:40;1.30;;;1.10;;
65656;SDS011;57397;50.096;14.404;2022-07-09T08:44:09;1.20;;;1.10;;
65656;SDS011;57397;50.096;14.404;2022-07-09T08:46:36;2.13;;;1.35;;
65656;SDS011;57397;50.096;14.404;2022-07-09T08:49:01;1.55;;;1.20;;
65656;SDS011;57397;50.096;14.404;2022-07-09T08:51:28;1.30;;;1.15;;
65656;SDS011;57397;50.096;14.404;2022-07-09T08:53:55;1.25;;;1.10;;
65656;SDS011;57397;50.096;14.404;2022-07-09T08:56:20;1.38;;;1.02;;
65656;SDS011;57397;50.096;14.404;2022-07-09T08:58:46;1.17;;;1.08;;
65656;SDS011;57397;50.096;14.404;2022-07-09T09:01:12;2.05;;;1.00;;
65656;SDS011;57397;50.096;14.404;2022-07-09T09:03:38;1.13;;;1.02;;
65656;SDS011;57397;50.096;14.404;2022-07-09T09:06:05;1.30;;;1.20;;
65656;SDS011;57397;50.096;14.404;2022-07-09T09:08:36;1.33;;;1.00;;
65656;SDS011;57397;50.096;14.404;2022-07-09T09:11:05;1.33;;;1.17;;
65656;SDS011;57397;50.096;14.404;2022-07-09T09:13:41;1.30;;;1.00;;
65656;SDS011;57397;50.096;14.404;2022-07-09T09:16:09;1.20;;;1.10;;
65656;SDS011;57397;50.096;14.404;2022-07-09T09:18:36;1.10;;;1.00;;
65656;SDS011;57397;50.096;14.404;2022-07-09T09:21:09;1.13;;;1.02;;
65656;SDS011;57397;50.096;14.404;2022-07-09T09:23:45;1.75;;;1.00;;
65656;SDS011;57397;50.096;14.404;2022-07-09T09:28:54;1.35;;;1.15;;
65656;SDS011;57397;50.096;14.404;2022-07-09T09:31:33;2.38;;;1.10;;
65656;SDS011;57397;50.096;14.404;2022-07-09T09:42:14;1.10;;;1.00;;
65656;SDS011;57397;50.096;14.404;2022-07-09T09:44:39;1.30;;;0.98;;
65656;SDS011;57397;50.096;14.404;2022-07-09T09:47:07;1.30;;;1.20;;
65656;SDS011;57397;50.096;14.404;2022-07-09T09:49:34;1.45;;;1.20;;
65656;SDS011;57397;50.096;14.404;2022-07-09T09:52:00;1.90;;;1.30;;
65656;SDS011;57397;50.096;14.404;2022-07-09T09:54:27;2.00;;;1.30;;
65656;SDS011;57397;50.096;14.404;2022-07-09T09:56:53;1.08;;;0.98;;
65656;SDS011;57397;50.096;14.404;2022-07-09T09:59:19;1.70;;;1.30;;
65656;SDS011;57397;50.096;14.404;2022-07-09T10:01:44;1.90;;;1.23;;
65656;SDS011;57397;50.096;14.404;2022-07-09T10:04:11;1.20;;;1.10;;
65656;SDS011;57397;50.096;14.404;2022-07-09T10:06:38;1.95;;;1.30;;
65656;SDS011;57397;50.096;14.404;2022-07-09T10:09:04;1.60;;;1.40;;
65656;SDS011;57397;50.096;14.404;2022-07-09T10:11:40;1.20;;;1.10;;
65656;SDS011;57397;50.096;14.404;2022-07-09T10:14:16;1.60;;;1.30;;
65656;SDS011;57397;50.096;14.404;2022-07-09T10:16:43;1.77;;;1.20;;
65656;SDS011;57397;50.096;14.404;2022-07-09T10:19:08;1.40;;;1.20;;
65656;SDS011;57397;50.096;14.404;2022-07-09T10:21:38;1.60;;;1.30;;
65656;SDS011;57397;50.096;14.404;2022-07-09T10:24:05;1.30;;;1.20;;
65656;SDS011;57397;50.096;14.404;2022-07-09T10:26:37;1.58;;;1.00;;
65656;SDS011;57397;50.096;14.404;2022-07-09T10:31:52;2.23;;;1.10;;
65656;SDS011;57397;50.096;14.404;2022-07-09T10:37:02;1.30;;;1.20;;
65656;SDS011;57397;50.096;14.404;2022-07-09T10:39:31;2.15;;;1.30;;
65656;SDS011;57397;50.096;14.404;2022-07-09T10:44:47;1.15;;;1.05;;
65656;SDS011;57397;50.096;14.404;2022-07-09T10:47:19;1.52;;;1.20;;
65656;SDS011;57397;50.096;14.404;2022-07-09T10:49:45;1.73;;;1.35;;
65656;SDS011;57397;50.096;14.404;2022-07-09T10:52:10;1.50;;;1.20;;
65656;SDS011;57397;50.096;14.404;2022-07-09T10:54:44;1.10;;;1.00;;
65656;SDS011;57397;50.096;14.404;2022-07-09T10:57:13;1.30;;;1.20;;
65656;SDS011;57397;50.096;14.404;2022-07-09T10:59:44;1.35;;;1.20;;
65656;SDS011;57397;50.096;14.404;2022-07-09T11:02:19;1.63;;;1.20;;
65656;SDS011;57397;50.096;14.404;2022-07-09T11:04:48;2.15;;;1.17;;
65656;SDS011;57397;50.096;14.404;2022-07-09T11:07:19;1.23;;;1.10;;
65656;SDS011;57397;50.096;14.404;2022-07-09T11:09:48;1.40;;;1.20;;
65656;SDS011;57397;50.096;14.404;2022-07-09T11:12:17;1.20;;;1.10;;
65656;SDS011;57397;50.096;14.404;2022-07-09T11:14:52;1.67;;;1.20;;
65656;SDS011;57397;50.096;14.404;2022-07-09T11:17:19;2.20;;;1.50;;
65656;SDS011;57397;50.096;14.404;2022-07-09T11:19:46;1.55;;;1.25;;
65656;SDS011;57397;50.096;14.404;2022-07-09T11:22:12;1.73;;;1.40;;
65656;SDS011;57397;50.096;14.404;2022-07-09T11:24:38;1.35;;;1.25;;
65656;SDS011;57397;50.096;14.404;2022-07-09T11:27:04;1.48;;;1.20;;
65656;SDS011;57397;50.096;14.404;2022-07-09T11:29:30;1.30;;;1.20;;
65656;SDS011;57397;50.096;14.404;2022-07-09T11:31:56;1.40;;;1.20;;
65656;SDS011;57397;50.096;14.404;2022-07-09T11:34:22;1.33;;;1.10;;
65656;SDS011;57397;50.096;14.404;2022-07-09T11:36:51;1.75;;;1.10;;
65656;SDS011;57397;50.096;14.404;2022-07-09T11:39:28;1.45;;;1.20;;
65656;SDS011;57397;50.096;14.404;2022-07-09T11:41:57;1.30;;;1.02;;
65656;SDS011;57397;50.096;14.404;2022-07-09T11:44:24;1.20;;;1.10;;
65656;SDS011;57397;50.096;14.404;2022-07-09T11:47:03;1.40;;;1.25;;
65656;SDS011;57397;50.096;14.404;2022-07-09T11:49:41;1.20;;;1.10;;
65656;SDS011;57397;50.096;14.404;2022-07-09T11:52:24;1.98;;;1.30;;
65656;SDS011;57397;50.096;14.404;2022-07-09T11:55:03;1.60;;;1.30;;
65656;SDS011;57397;50.096;14.404;2022-07-09T11:57:35;1.30;;;1.10;;
65656;SDS011;57397;50.096;14.404;2022-07-09T12:00:03;1.20;;;1.10;;
65656;SDS011;57397;50.096;14.404;2022-07-09T12:02:34;1.60;;;1.17;;
65656;SDS011;57397;50.096;14.404;2022-07-09T12:05:05;1.40;;;1.20;;
65656;SDS011;57397;50.096;14.404;2022-07-09T12:07:32;1.65;;;1.00;;
65656;SDS011;57397;50.096;14.404;2022-07-09T12:10:03;1.10;;;1.00;;
65656;SDS011;57397;50.096;14.404;2022-07-09T12:12:31;2.28;;;1.30;;
65656;SDS011;57397;50.096;14.404;2022-07-09T12:14:58;1.20;;;1.10;;
65656;SDS011;57397;50.096;14.404;2022-07-09T12:17:25;1.90;;;1.30;;
65656;SDS011;57397;50.096;14.404;2022-07-09T12:19:52;1.23;;;1.05;;
65656;SDS011;57397;50.096;14.404;2022-07-09T12:22:18;1.30;;;1.20;;
65656;SDS011;57397;50.096;14.404;2022-07-09T12:24:43;1.23;;;1.10;;
65656;SDS011;57397;50.096;14.404;2022-07-09T12:27:10;1.40;;;1.30;;
65656;SDS011;57397;50.096;14.404;2022-07-09T12:29:36;1.90;;;1.23;;
65656;SDS011;57397;50.096;14.404;2022-07-09T12:32:01;1.98;;;1.25;;
65656;SDS011;57397;50.096;14.404;2022-07-09T12:34:27;1.95;;;1.45;;
65656;SDS011;57397;50.096;14.404;2022-07-09T12:36:52;1.30;;;1.10;;
65656;SDS011;57397;50.096;14.404;2022-07-09T12:39:18;1.90;;;1.30;;
65656;SDS011;57397;50.096;14.404;2022-07-09T12:41:44;1.40;;;1.30;;
65656;SDS011;57397;50.096;14.404;2022-07-09T12:44:09;1.60;;;1.30;;
65656;SDS011;57397;50.096;14.404;2022-07-09T12:46:34;1.30;;;1.20;;
65656;SDS011;57397;50.096;14.404;2022-07-09T12:49:01;1.98;;;1.23;;
65656;SDS011;57397;50.096;14.404;2022-07-09T12:51:27;1.98;;;1.35;;
65656;SDS011;57397;50.096;14.404;2022-07-09T12:53:52;1.58;;;1.30;;
65656;SDS011;57397;50.096;14.404;2022-07-09T12:56:18;1.75;;;1.30;;
65656;SDS011;57397;50.096;14.404;2022-07-09T12:58:44;1.73;;;1.38;;
65656;SDS011;57397;50.096;14.404;2022-07-09T13:01:10;1.98;;;1.42;;
65656;SDS011;57397;50.096;14.404;2022-07-09T13:03:35;2.38;;;1.40;;
65656;SDS011;57397;50.096;14.404;2022-07-09T13:06:01;1.70;;;1.58;;
65656;SDS011;57397;50.096;14.404;2022-07-09T13:08:27;2.42;;;1.80;;
65656;SDS011;57397;50.096;14.404;2022-07-09T13:10:52;3.05;;;1.60;;
65656;SDS011;57397;50.096;14.404;2022-07-09T13:13:21;2.13;;;1.60;;
65656;SDS011;57397;50.096;14.404;2022-07-09T13:15:46;2.28;;;1.65;;
65656;SDS011;57397;50.096;14.404;2022-07-09T13:18:12;1.75;;;1.65;;
65656;SDS011;57397;50.096;14.404;2022-07-09T13:20:38;2.15;;;1.58;;
65656;SDS011;57397;50.096;14.404;2022-07-09T13:23:04;1.80;;;1.60;;
65656;SDS011;57397;50.096;14.404;2022-07-09T13:25:29;1.80;;;1.63;;
65656;SDS011;57397;50.096;14.404;2022-07-09T13:27:55;1.70;;;1.50;;
65656;SDS011;57397;50.096;14.404;2022-07-09T13:30:23;1.63;;;1.40;;
65656;SDS011;57397;50.096;14.404;2022-07-09T13:32:50;2.67;;;1.80;;
65656;SDS011;57397;50.096;14.404;2022-07-09T13:35:16;2.38;;;1.60;;
65656;SDS011;57397;50.096;14.404;2022-07-09T13:37:42;3.28;;;1.70;;
65656;SDS011;57397;50.096;14.404;2022-07-09T13:40:08;1.85;;;1.67;;
65656;SDS011;57397;50.096;14.404;2022-07-09T13:42:34;4.35;;;1.70;;
65656;SDS011;57397;50.096;14.404;2022-07-09T13:45:00;2.05;;;1.50;;
65656;SDS011;57397;50.096;14.404;2022-07-09T13:47:26;2.92;;;1.90;;
65656;SDS011;57397;50.096;14.404;2022-07-09T13:49:51;2.10;;;1.70;;
65656;SDS011;57397;50.096;14.404;2022-07-09T13:52:17;1.90;;;1.67;;
65656;SDS011;57397;50.096;14.404;2022-07-09T13:54:44;1.90;;;1.48;;
65656;SDS011;57397;50.096;14.404;2022-07-09T13:57:09;2.10;;;1.90;;
65656;SDS011;57397;50.096;14.404;2022-07-09T13:59:35;2.00;;;1.60;;
65656;SDS011;57397;50.096;14.404;2022-07-09T14:02:00;1.88;;;1.70;;
65656;SDS011;57397;50.096;14.404;2022-07-09T14:04:26;2.58;;;1.40;;
65656;SDS011;57397;50.096;14.404;2022-07-09T14:06:51;2.55;;;1.75;;
65656;SDS011;57397;50.096;14.404;2022-07-09T14:09:17;2.13;;;1.60;;
65656;SDS011;57397;50.096;14.404;2022-07-09T14:11:45;1.77;;;1.50;;
65656;SDS011;57397;50.096;14.404;2022-07-09T14:14:11;2.28;;;1.65;;
65656;SDS011;57397;50.096;14.404;2022-07-09T14:16:36;1.85;;;1.50;;
65656;SDS011;57397;50.096;14.404;2022-07-09T14:19:02;1.67;;;1.40;;
65656;SDS011;57397;50.096;14.404;2022-07-09T14:21:28;2.58;;;1.67;;
65656;SDS011;57397;50.096;14.404;2022-07-09T14:23:56;1.95;;;1.60;;
65656;SDS011;57397;50.096;14.404;2022-07-09T14:26:23;1.80;;;1.50;;
65656;SDS011;57397;50.096;14.404;2022-07-09T14:28:49;3.47;;;1.50;;
65656;SDS011;57397;50.096;14.404;2022-07-09T14:31:15;2.25;;;1.60;;
65656;SDS011;57397;50.096;14.404;2022-07-09T14:33:40;2.53;;;1.80;;
65656;SDS011;57397;50.096;14.404;2022-07-09T14:36:06;2.20;;;1.70;;
65656;SDS011;57397;50.096;14.404;2022-07-09T14:38:31;2.30;;;1.60;;
65656;SDS011;57397;50.096;14.404;2022-07-09T14:40:57;2.05;;;1.60;;
65656;SDS011;57397;50.096;14.404;2022-07-09T14:43:22;1.70;;;1.60;;
65656;SDS011;57397;50.096;14.404;2022-07-09T14:45:48;1.60;;;1.40;;
65656;SDS011;57397;50.096;14.404;2022-07-09T14:48:14;1.88;;;1.38;;